createdAt,value
2023-01-08T00:03:52.882Z,3623
2023-01-08T00:13:52.709Z,3626
2023-01-08T00:23:52.628Z,3623
2023-01-08T00:33:53.078Z,3620
2023-01-08T00:43:52.668Z,3620
2023-01-08T00:53:52.633Z,3623
2023-01-08T01:03:52.718Z,3620
2023-01-08T01:13:53.040Z,3620
2023-01-08T01:23:52.597Z,3623
2023-01-08T01:33:53.039Z,3620
2023-01-08T01:43:52.547Z,3620
2023-01-08T01:53:52.542Z,3626
2023-01-08T02:03:52.584Z,3626
2023-01-08T02:13:52.545Z,3623
2023-01-08T02:23:52.499Z,3626
2023-01-08T02:33:52.507Z,3626
2023-01-08T02:43:52.523Z,3626
2023-01-08T02:53:52.457Z,3623
2023-01-08T03:03:52.632Z,3623
2023-01-08T03:13:52.469Z,3623
2023-01-08T03:23:52.421Z,3623
2023-01-08T03:33:52.484Z,3623
2023-01-08T03:43:52.441Z,3623
2023-01-08T03:53:52.412Z,3623
2023-01-08T04:03:52.422Z,3626
2023-01-08T04:13:52.408Z,3623
2023-01-08T04:23:52.357Z,3623
2023-01-08T04:33:52.402Z,3620
2023-01-08T04:43:52.406Z,3623
2023-01-08T04:53:52.771Z,3620
2023-01-08T05:03:52.730Z,3615
2023-01-08T05:13:52.352Z,3620
2023-01-08T05:23:52.290Z,3623
2023-01-08T05:33:52.737Z,3620
2023-01-08T05:44:14.664Z,3597
2023-01-08T05:53:54.231Z,3605
2023-01-08T06:03:52.314Z,3615
2023-01-08T06:13:52.288Z,3620
2023-01-08T06:23:52.218Z,3623
2023-01-08T06:33:52.280Z,3626
2023-01-08T06:43:52.234Z,3623
2023-01-08T06:53:52.198Z,3623
2023-01-08T07:03:52.635Z,3620
2023-01-08T07:13:54.115Z,3610
2023-01-08T07:23:52.147Z,3615
2023-01-08T07:33:52.192Z,3615
2023-01-08T07:43:52.594Z,3615
2023-01-08T07:53:54.059Z,3605
2023-01-08T08:03:52.149Z,3610
2023-01-08T08:13:53.389Z,3615
2023-01-08T08:23:52.096Z,3620
2023-01-08T08:33:52.129Z,3620
2023-01-08T08:43:52.101Z,3620
2023-01-08T08:53:52.087Z,3620
2023-01-08T09:03:52.100Z,3620
2023-01-08T09:13:52.091Z,3620
2023-01-08T09:23:52.049Z,3620
2023-01-08T09:33:52.079Z,3615
2023-01-08T09:43:52.072Z,3620
2023-01-08T09:53:52.033Z,3620
2023-01-08T10:03:52.067Z,3620
2023-01-08T10:13:52.026Z,3620
2023-01-08T10:23:51.990Z,3620
2023-01-08T10:33:52.445Z,3620
2023-01-08T10:43:53.940Z,3605
2023-01-08T10:53:52.377Z,3607
2023-01-08T11:03:52.001Z,3615
2023-01-08T11:13:51.973Z,3615
2023-01-08T11:23:51.939Z,3618
2023-01-08T11:33:52.362Z,3615
2023-01-08T11:43:51.961Z,3618
2023-01-08T11:53:51.915Z,3620
2023-01-08T12:03:51.940Z,3620
2023-01-08T12:13:51.899Z,3620
2023-01-08T12:23:51.858Z,3620
2023-01-08T12:33:51.887Z,3620
2023-01-08T12:43:51.905Z,3620
2023-01-08T12:53:51.854Z,3620
2023-01-08T13:03:51.887Z,3623
2023-01-08T13:13:51.840Z,3620
2023-01-08T13:23:51.805Z,3620
2023-01-08T13:33:52.254Z,3618
2023-01-08T13:43:51.827Z,3620
2023-01-08T13:53:52.190Z,3615
2023-01-08T14:03:52.220Z,3615
2023-01-08T14:13:51.806Z,3618
2023-01-08T14:23:51.758Z,3620
2023-01-08T14:33:53.264Z,3620
2023-01-08T14:43:52.184Z,3618
2023-01-08T14:53:51.730Z,3620
2023-01-08T15:03:51.737Z,3620
2023-01-08T15:13:51.742Z,3620
2023-01-08T15:23:51.686Z,3620
2023-01-08T15:33:51.720Z,3620
2023-01-08T15:43:51.702Z,3620
2023-01-08T15:53:51.678Z,3620
2023-01-08T16:03:51.665Z,3620
2023-01-08T16:13:51.672Z,3620
2023-01-08T16:23:51.619Z,3620
2023-01-08T16:33:51.656Z,3620
2023-01-08T16:43:51.631Z,3620
2023-01-08T16:53:52.032Z,3618
2023-01-08T17:03:53.578Z,3605
2023-01-08T17:13:51.600Z,3613
2023-01-08T17:23:51.580Z,3615
2023-01-08T17:33:52.018Z,3615
2023-01-08T17:43:51.553Z,3615
2023-01-08T17:53:51.955Z,3615
2023-01-08T18:03:51.562Z,3618
2023-01-08T18:13:51.574Z,3618
2023-01-08T18:23:51.928Z,3615
2023-01-08T18:33:51.536Z,3618
2023-01-08T18:43:51.539Z,3620
2023-01-08T18:53:51.491Z,3620
2023-01-08T19:03:51.511Z,3620
2023-01-08T19:13:51.498Z,3620
2023-01-08T19:23:51.463Z,3620
2023-01-08T19:33:51.458Z,3620
2023-01-08T19:43:51.475Z,3620
2023-01-08T19:53:51.415Z,3620
2023-01-08T20:03:51.855Z,3615
2023-01-08T20:13:51.415Z,3620
2023-01-08T20:23:51.402Z,3620
2023-01-08T20:33:51.418Z,3620
2023-01-08T20:43:51.792Z,3615
2023-01-08T20:53:51.358Z,3618
2023-01-08T21:03:51.409Z,3620
2023-01-08T21:13:51.376Z,3620
2023-01-08T21:23:51.339Z,3620
2023-01-08T21:33:51.349Z,3620
2023-01-08T21:43:51.315Z,3615
2023-01-08T21:53:51.300Z,3618
2023-01-08T22:03:51.368Z,3615
2023-01-08T22:13:51.323Z,3615
2023-01-08T22:23:51.304Z,3615
2023-01-08T22:33:51.312Z,3618
2023-01-08T22:43:51.312Z,3620
2023-01-08T22:53:51.242Z,3620
2023-01-08T23:03:51.362Z,3620
2023-01-08T23:13:51.304Z,3620
2023-01-08T23:23:51.222Z,3620
2023-01-08T23:33:51.658Z,3618
2023-01-08T23:43:51.224Z,3620
2023-01-08T23:53:51.200Z,3620
